sensor_id;sensor_type;location;lat;lon;timestamp;pressure;altitude;pressure_sealevel;temperature;humidity
13050;BME280;6591;51.446;5.404;2023-03-26T00:01:33;100433.03;;;14.61;54.73
13050;BME280;6591;51.446;5.404;2023-03-26T00:04:05;100431.53;;;14.57;54.81
13050;BME280;6591;51.446;5.404;2023-03-26T00:06:35;100430.25;;;14.50;54.90
13050;BME280;6591;51.446;5.404;2023-03-26T00:09:09;100433.22;;;14.46;54.82
13050;BME280;6591;51.446;5.404;2023-03-26T00:11:39;100430.03;;;14.40;54.92
13050;BME280;6591;51.446;5.404;2023-03-26T00:14:07;100425.06;;;14.34;55.00
13050;BME280;6591;51.446;5.404;2023-03-26T00:16:35;100426.22;;;14.30;55.12
13050;BME280;6591;51.446;5.404;2023-03-26T00:19:02;100418.53;;;14.26;54.95
13050;BME280;6591;51.446;5.404;2023-03-26T00:21:30;100422.47;;;14.20;55.14
13050;BME280;6591;51.446;5.404;2023-03-26T00:24:04;100419.25;;;14.15;54.97
13050;BME280;6591;51.446;5.404;2023-03-26T00:26:34;100417.75;;;14.11;54.84
13050;BME280;6591;51.446;5.404;2023-03-26T00:29:01;100417.19;;;14.06;55.45
13050;BME280;6591;51.446;5.404;2023-03-26T00:31:30;100416.56;;;14.03;55.21
13050;BME280;6591;51.446;5.404;2023-03-26T00:33:57;100415.03;;;13.98;54.85
13050;BME280;6591;51.446;5.404;2023-03-26T00:36:25;100413.53;;;13.94;54.94
13050;BME280;6591;51.446;5.404;2023-03-26T00:38:53;100407.63;;;13.89;55.11
13050;BME280;6591;51.446;5.404;2023-03-26T00:41:23;100405.06;;;13.88;55.16
13050;BME280;6591;51.446;5.404;2023-03-26T00:43:56;100399.09;;;13.84;55.50
13050;BME280;6591;51.446;5.404;2023-03-26T00:46:26;100400.88;;;13.84;55.66
13050;BME280;6591;51.446;5.404;2023-03-26T00:48:54;100399.94;;;13.85;55.87
13050;BME280;6591;51.446;5.404;2023-03-26T00:55:57;100392.13;;;13.82;56.08
13050;BME280;6591;51.446;5.404;2023-03-26T00:58:26;100393.66;;;13.86;55.99
13050;BME280;6591;51.446;5.404;2023-03-26T01:00:58;100390.78;;;13.89;55.63
13050;BME280;6591;51.446;5.404;2023-03-26T01:03:28;100384.56;;;13.88;55.41
13050;BME280;6591;51.446;5.404;2023-03-26T01:06:02;100378.50;;;13.86;55.36
13050;BME280;6591;51.446;5.404;2023-03-26T01:08:44;100382.22;;;13.84;55.31
13050;BME280;6591;51.446;5.404;2023-03-26T01:11:24;100372.72;;;13.80;55.44
13050;BME280;6591;51.446;5.404;2023-03-26T01:13:58;100362.97;;;13.79;55.67
13050;BME280;6591;51.446;5.404;2023-03-26T01:16:46;100361.47;;;13.75;55.54
13050;BME280;6591;51.446;5.404;2023-03-26T01:21:50;100349.09;;;13.74;55.41
13050;BME280;6591;51.446;5.404;2023-03-26T01:24:18;100337.78;;;13.70;55.72
13050;BME280;6591;51.446;5.404;2023-03-26T01:29:47;100335.81;;;13.60;54.83
13050;BME280;6591;51.446;5.404;2023-03-26T01:35:21;100333.84;;;13.49;55.18
13050;BME280;6591;51.446;5.404;2023-03-26T01:46:02;100318.00;;;13.33;55.37
13050;BME280;6591;51.446;5.404;2023-03-26T01:48:36;100323.53;;;13.30;55.44
13050;BME280;6591;51.446;5.404;2023-03-26T01:51:06;100320.13;;;13.28;55.79
13050;BME280;6591;51.446;5.404;2023-03-26T01:53:54;100311.66;;;13.22;55.75
13050;BME280;6591;51.446;5.404;2023-03-26T02:02:12;100298.94;;;13.12;55.38
13050;BME280;6591;51.446;5.404;2023-03-26T02:04:56;100298.06;;;13.12;55.76
13050;BME280;6591;51.446;5.404;2023-03-26T02:07:49;100296.53;;;13.08;55.91
13050;BME280;6591;51.446;5.404;2023-03-26T02:10:28;100288.41;;;13.09;56.23
13050;BME280;6591;51.446;5.404;2023-03-26T02:12:57;100284.75;;;13.12;56.28
13050;BME280;6591;51.446;5.404;2023-03-26T02:15:25;100273.88;;;13.15;56.48
13050;BME280;6591;51.446;5.404;2023-03-26T02:17:52;100266.63;;;13.17;56.66
13050;BME280;6591;51.446;5.404;2023-03-26T02:20:22;100268.22;;;13.20;56.43
13050;BME280;6591;51.446;5.404;2023-03-26T02:22:49;100265.47;;;13.21;56.61
13050;BME280;6591;51.446;5.404;2023-03-26T02:25:20;100256.44;;;13.24;56.16
13050;BME280;6591;51.446;5.404;2023-03-26T02:27:50;100253.66;;;13.25;56.54
13050;BME280;6591;51.446;5.404;2023-03-26T02:30:23;100266.78;;;13.28;56.51
13050;BME280;6591;51.446;5.404;2023-03-26T02:32:54;100255.06;;;13.31;56.40
13050;BME280;6591;51.446;5.404;2023-03-26T02:35:30;100252.28;;;13.32;56.23
13050;BME280;6591;51.446;5.404;2023-03-26T02:37:59;100252.94;;;13.36;56.70
13050;BME280;6591;51.446;5.404;2023-03-26T02:40:27;100251.91;;;13.38;56.59
13050;BME280;6591;51.446;5.404;2023-03-26T02:42:55;100250.09;;;13.39;56.62
13050;BME280;6591;51.446;5.404;2023-03-26T02:45:23;100243.59;;;13.43;56.75
13050;BME280;6591;51.446;5.404;2023-03-26T02:48:08;100233.69;;;13.45;56.68
13050;BME280;6591;51.446;5.404;2023-03-26T02:50:52;100230.88;;;13.46;56.59
13050;BME280;6591;51.446;5.404;2023-03-26T02:53:40;100225.47;;;13.48;56.80
13050;BME280;6591;51.446;5.404;2023-03-26T02:56:36;100220.75;;;13.51;57.03
13050;BME280;6591;51.446;5.404;2023-03-26T02:59:21;100212.56;;;13.54;56.86
13050;BME280;6591;51.446;5.404;2023-03-26T03:02:04;100211.50;;;13.57;56.62
13050;BME280;6591;51.446;5.404;2023-03-26T03:04:36;100204.03;;;13.62;56.95
13050;BME280;6591;51.446;5.404;2023-03-26T03:07:03;100203.84;;;13.65;56.62
13050;BME280;6591;51.446;5.404;2023-03-26T03:09:31;100192.19;;;13.66;56.85
13050;BME280;6591;51.446;5.404;2023-03-26T03:12:16;100203.63;;;13.68;56.75
13050;BME280;6591;51.446;5.404;2023-03-26T03:14:44;100192.63;;;13.73;56.83
13050;BME280;6591;51.446;5.404;2023-03-26T03:17:11;100188.78;;;13.77;56.79
13050;BME280;6591;51.446;5.404;2023-03-26T03:19:38;100186.88;;;13.79;56.82
13050;BME280;6591;51.446;5.404;2023-03-26T03:22:06;100175.16;;;13.81;56.73
13050;BME280;6591;51.446;5.404;2023-03-26T03:24:34;100171.28;;;13.85;56.67
13050;BME280;6591;51.446;5.404;2023-03-26T03:27:01;100162.00;;;13.91;57.00
13050;BME280;6591;51.446;5.404;2023-03-26T03:29:39;100164.44;;;13.94;56.90
13050;BME280;6591;51.446;5.404;2023-03-26T03:32:27;100161.44;;;13.98;56.75
13050;BME280;6591;51.446;5.404;2023-03-26T03:34:59;100160.41;;;14.01;56.70
13050;BME280;6591;51.446;5.404;2023-03-26T03:37:26;100163.69;;;14.05;56.69
13050;BME280;6591;51.446;5.404;2023-03-26T03:39:54;100155.59;;;14.06;56.73
13050;BME280;6591;51.446;5.404;2023-03-26T03:42:25;100156.31;;;14.08;56.74
13050;BME280;6591;51.446;5.404;2023-03-26T03:44:56;100157.06;;;14.10;56.67
13050;BME280;6591;51.446;5.404;2023-03-26T03:47:51;100151.50;;;14.13;57.09
13050;BME280;6591;51.446;5.404;2023-03-26T03:50:28;100137.00;;;14.17;56.79
13050;BME280;6591;51.446;5.404;2023-03-26T03:53:22;100139.44;;;14.20;56.81
13050;BME280;6591;51.446;5.404;2023-03-26T03:55:55;100140.06;;;14.24;56.73
13050;BME280;6591;51.446;5.404;2023-03-26T03:58:29;100126.50;;;14.27;56.85
13050;BME280;6591;51.446;5.404;2023-03-26T04:01:03;100119.97;;;14.31;56.85
13050;BME280;6591;51.446;5.404;2023-03-26T04:03:50;100125.09;;;14.34;56.60
13050;BME280;6591;51.446;5.404;2023-03-26T04:06:22;100124.91;;;14.37;56.62
13050;BME280;6591;51.446;5.404;2023-03-26T04:08:52;100117.50;;;14.40;56.72
13050;BME280;6591;51.446;5.404;2023-03-26T04:11:20;100115.69;;;14.41;56.95
13050;BME280;6591;51.446;5.404;2023-03-26T04:14:11;100099.47;;;14.44;56.89
13050;BME280;6591;51.446;5.404;2023-03-26T04:16:49;100096.66;;;14.46;56.49
13050;BME280;6591;51.446;5.404;2023-03-26T04:19:16;100084.91;;;14.48;56.47
13050;BME280;6591;51.446;5.404;2023-03-26T04:21:43;100082.13;;;14.50;56.64
13050;BME280;6591;51.446;5.404;2023-03-26T04:24:10;100082.13;;;14.50;56.39
13050;BME280;6591;51.446;5.404;2023-03-26T04:26:56;100068.88;;;14.48;56.54
13050;BME280;6591;51.446;5.404;2023-03-26T04:29:46;100068.97;;;14.47;56.31
13050;BME280;6591;51.446;5.404;2023-03-26T04:32:27;100068.03;;;14.48;56.51
13050;BME280;6591;51.446;5.404;2023-03-26T04:35:02;100063.53;;;14.48;56.10
13050;BME280;6591;51.446;5.404;2023-03-26T04:37:39;100055.63;;;14.47;56.06
13050;BME280;6591;51.446;5.404;2023-03-26T04:40:20;100050.28;;;14.47;56.31
13050;BME280;6591;51.446;5.404;2023-03-26T04:43:12;100041.53;;;14.45;55.85
13050;BME280;6591;51.446;5.404;2023-03-26T04:45:57;100041.75;;;14.41;55.75
13050;BME280;6591;51.446;5.404;2023-03-26T04:48:31;100034.72;;;14.40;55.60
13050;BME280;6591;51.446;5.404;2023-03-26T04:50:58;100032.19;;;14.39;55.91
13050;BME280;6591;51.446;5.404;2023-03-26T04:53:26;100023.41;;;14.37;55.66
13050;BME280;6591;51.446;5.404;2023-03-26T04:56:55;100022.25;;;14.28;55.62
13050;BME280;6591;51.446;5.404;2023-03-26T04:59:32;100019.59;;;14.28;55.71
13050;BME280;6591;51.446;5.404;2023-03-26T05:02:07;100012.63;;;14.26;55.93
13050;BME280;6591;51.446;5.404;2023-03-26T05:04:44;100014.44;;;14.25;55.81
13050;BME280;6591;51.446;5.404;2023-03-26T05:07:20;100012.75;;;14.24;55.95
13050;BME280;6591;51.446;5.404;2023-03-26T05:09:55;100010.81;;;14.26;56.00
13050;BME280;6591;51.446;5.404;2023-03-26T05:12:49;100001.00;;;14.27;56.07
13050;BME280;6591;51.446;5.404;2023-03-26T05:15:25;99997.22;;;14.29;56.05
13050;BME280;6591;51.446;5.404;2023-03-26T05:18:04;100004.28;;;14.30;55.96
13050;BME280;6591;51.446;5.404;2023-03-26T05:20:39;100007.59;;;14.34;55.88
13050;BME280;6591;51.446;5.404;2023-03-26T05:23:08;100001.19;;;14.36;55.92
13050;BME280;6591;51.446;5.404;2023-03-26T05:25:42;100001.94;;;14.38;55.91
13050;BME280;6591;51.446;5.404;2023-03-26T05:28:15;99990.91;;;14.43;55.95
13050;BME280;6591;51.446;5.404;2023-03-26T05:30:55;99987.13;;;14.46;55.78
13050;BME280;6591;51.446;5.404;2023-03-26T05:33:25;99983.28;;;14.50;55.78
13050;BME280;6591;51.446;5.404;2023-03-26T05:36:07;99975.28;;;14.50;55.54
13050;BME280;6591;51.446;5.404;2023-03-26T05:38:35;99976.75;;;14.54;55.80
13050;BME280;6591;51.446;5.404;2023-03-26T05:41:08;99967.63;;;14.56;55.85
13050;BME280;6591;51.446;5.404;2023-03-26T05:43:39;99958.66;;;14.57;55.68
13050;BME280;6591;51.446;5.404;2023-03-26T05:46:14;99947.97;;;14.57;55.47
13050;BME280;6591;51.446;5.404;2023-03-26T05:48:42;99939.84;;;14.59;55.92
13050;BME280;6591;51.446;5.404;2023-03-26T05:51:09;99943.38;;;14.59;55.45
13050;BME280;6591;51.446;5.404;2023-03-26T05:53:42;99945.91;;;14.61;55.27
13050;BME280;6591;51.446;5.404;2023-03-26T05:56:14;99933.41;;;14.61;55.62
13050;BME280;6591;51.446;5.404;2023-03-26T05:58:56;99933.53;;;14.60;55.55
13050;BME280;6591;51.446;5.404;2023-03-26T06:01:42;99931.84;;;14.59;55.78
13050;BME280;6591;51.446;5.404;2023-03-26T06:04:13;99927.34;;;14.59;55.76
13050;BME280;6591;51.446;5.404;2023-03-26T06:07:09;99921.00;;;14.60;55.90
13050;BME280;6591;51.446;5.404;2023-03-26T06:09:38;99923.69;;;14.60;55.54
13050;BME280;6591;51.446;5.404;2023-03-26T06:12:08;99913.84;;;14.61;55.45
13050;BME280;6591;51.446;5.404;2023-03-26T06:14:37;99919.31;;;14.59;55.70
13050;BME280;6591;51.446;5.404;2023-03-26T06:17:16;99913.84;;;14.61;55.72
13050;BME280;6591;51.446;5.404;2023-03-26T06:20:14;99918.22;;;14.62;55.59
13050;BME280;6591;51.446;5.404;2023-03-26T06:22:45;99909.25;;;14.63;55.71
13050;BME280;6591;51.446;5.404;2023-03-26T06:25:19;99916.28;;;14.64;55.69
13050;BME280;6591;51.446;5.404;2023-03-26T06:28:06;99910.00;;;14.65;55.48
13050;BME280;6591;51.446;5.404;2023-03-26T06:30:48;99906.31;;;14.66;55.55
13050;BME280;6591;51.446;5.404;2023-03-26T06:33:42;99910.59;;;14.68;55.64
13050;BME280;6591;51.446;5.404;2023-03-26T06:36:12;99913.16;;;14.70;55.52
13050;BME280;6591;51.446;5.404;2023-03-26T06:38:39;99910.22;;;14.73;55.63
13050;BME280;6591;51.446;5.404;2023-03-26T06:41:08;99916.31;;;14.75;55.57
13050;BME280;6591;51.446;5.404;2023-03-26T06:43:53;99916.31;;;14.75;55.66
13050;BME280;6591;51.446;5.404;2023-03-26T06:46:40;99916.44;;;14.73;55.54
13050;BME280;6591;51.446;5.404;2023-03-26T06:49:42;99919.00;;;14.75;55.74
13050;BME280;6591;51.446;5.404;2023-03-26T06:52:29;99907.44;;;14.74;55.67
13050;BME280;6591;51.446;5.404;2023-03-26T06:55:20;99914.38;;;14.77;55.33
13050;BME280;6591;51.446;5.404;2023-03-26T06:58:13;99908.06;;;14.78;55.42
13050;BME280;6591;51.446;5.404;2023-03-26T07:01:03;99914.00;;;14.81;55.62
13050;BME280;6591;51.446;5.404;2023-03-26T07:03:48;99913.91;;;14.83;55.61
13050;BME280;6591;51.446;5.404;2023-03-26T07:06:34;99903.19;;;14.83;55.67
13050;BME280;6591;51.446;5.404;2023-03-26T07:09:20;99901.50;;;14.82;55.42
13050;BME280;6591;51.446;5.404;2023-03-26T07:12:06;99886.31;;;14.82;55.59
13050;BME280;6591;51.446;5.404;2023-03-26T07:15:04;99900.63;;;14.81;55.67
13050;BME280;6591;51.446;5.404;2023-03-26T07:17:56;99887.91;;;14.85;55.68
13050;BME280;6591;51.446;5.404;2023-03-26T07:20:28;99888.63;;;14.87;55.69
13050;BME280;6591;51.446;5.404;2023-03-26T07:22:55;99886.09;;;14.86;55.97
13050;BME280;6591;51.446;5.404;2023-03-26T07:25:34;99883.16;;;14.89;55.91
13050;BME280;6591;51.446;5.404;2023-03-26T07:31:30;99876.47;;;14.83;55.73
13050;BME280;6591;51.446;5.404;2023-03-26T07:47:35;99870.06;;;14.86;56.11
13050;BME280;6591;51.446;5.404;2023-03-26T07:50:37;99864.19;;;14.92;56.01
13050;BME280;6591;51.446;5.404;2023-03-26T07:53:10;99861.19;;;14.96;56.17
13050;BME280;6591;51.446;5.404;2023-03-26T07:56:36;99858.50;;;14.96;56.12
13050;BME280;6591;51.446;5.404;2023-03-26T08:06:24;99855.81;;;15.07;55.95
13050;BME280;6591;51.446;5.404;2023-03-26T08:10:15;99854.34;;;15.14;56.18
13050;BME280;6591;51.446;5.404;2023-03-26T08:15:30;99846.59;;;15.22;56.14
13050;BME280;6591;51.446;5.404;2023-03-26T08:21:10;99844.13;;;15.31;56.30
13050;BME280;6591;51.446;5.404;2023-03-26T08:24:12;99841.06;;;15.35;56.51
13050;BME280;6591;51.446;5.404;2023-03-26T08:27:20;99845.34;;;15.38;56.65
13050;BME280;6591;51.446;5.404;2023-03-26T08:32:38;99839.22;;;15.47;56.34
13050;BME280;6591;51.446;5.404;2023-03-26T08:35:05;99835.25;;;15.52;56.41
13050;BME280;6591;51.446;5.404;2023-03-26T08:37:33;99842.78;;;15.58;56.26
13050;BME280;6591;51.446;5.404;2023-03-26T08:40:00;99840.69;;;15.62;56.24
13050;BME280;6591;51.446;5.404;2023-03-26T08:42:56;99848.72;;;15.62;56.13
13050;BME280;6591;51.446;5.404;2023-03-26T08:46:06;99842.63;;;15.60;56.40
13050;BME280;6591;51.446;5.404;2023-03-26T09:01:43;99833.97;;;15.67;56.58
13050;BME280;6591;51.446;5.404;2023-03-26T09:07:35;99838.44;;;15.78;56.65
13050;BME280;6591;51.446;5.404;2023-03-26T09:10:38;99830.88;;;15.83;56.43
13050;BME280;6591;51.446;5.404;2023-03-26T09:21:50;99833.25;;;15.97;56.60
13050;BME280;6591;51.446;5.404;2023-03-26T09:31:11;99826.22;;;16.17;56.62
13050;BME280;6591;51.446;5.404;2023-03-26T09:33:55;99828.34;;;16.23;56.43
13050;BME280;6591;51.446;5.404;2023-03-26T09:40:14;99826.97;;;16.29;56.14
13050;BME280;6591;51.446;5.404;2023-03-26T09:42:36;99831.94;;;16.33;56.34
13050;BME280;6591;51.446;5.404;2023-03-26T09:47:58;99825.09;;;16.40;56.56
13050;BME280;6591;51.446;5.404;2023-03-26T09:50:51;99829.34;;;16.43;56.36
13050;BME280;6591;51.446;5.404;2023-03-26T09:56:56;99832.72;;;16.45;56.09
13050;BME280;6591;51.446;5.404;2023-03-26T10:26:26;99846.00;;;16.46;56.57
13050;BME280;6591;51.446;5.404;2023-03-26T10:50:00;99850.13;;;16.71;55.73
13050;BME280;6591;51.446;5.404;2023-03-26T10:55:36;99852.84;;;16.81;56.04
13050;BME280;6591;51.446;5.404;2023-03-26T10:58:24;99849.63;;;16.87;55.78
13050;BME280;6591;51.446;5.404;2023-03-26T11:01:02;99859.44;;;16.98;55.88
13050;BME280;6591;51.446;5.404;2023-03-26T11:03:50;99852.38;;;17.06;55.91
13050;BME280;6591;51.446;5.404;2023-03-26T11:15:12;99863.38;;;17.43;55.80
13050;BME280;6591;51.446;5.404;2023-03-26T11:20:52;99869.16;;;17.69;55.71
13050;BME280;6591;51.446;5.404;2023-03-26T11:24:02;99870.56;;;17.83;55.62
13050;BME280;6591;51.446;5.404;2023-03-26T11:26:55;99864.66;;;17.89;55.06
13050;BME280;6591;51.446;5.404;2023-03-26T11:30:29;99871.56;;;17.91;54.66
13050;BME280;6591;51.446;5.404;2023-03-26T11:32:44;99874.25;;;17.91;54.66
13050;BME280;6591;51.446;5.404;2023-03-26T11:35:30;99872.28;;;17.93;54.68
13050;BME280;6591;51.446;5.404;2023-03-26T11:38:33;99876.38;;;17.88;54.20
13050;BME280;6591;51.446;5.404;2023-03-26T11:41:33;99882.16;;;17.73;54.08
13050;BME280;6591;51.446;5.404;2023-03-26T11:44:27;99887.66;;;17.62;53.91
13050;BME280;6591;51.446;5.404;2023-03-26T11:47:04;99887.72;;;17.51;53.63
13050;BME280;6591;51.446;5.404;2023-03-26T11:49:36;99879.50;;;17.43;53.92
13050;BME280;6591;51.446;5.404;2023-03-26T11:52:03;99880.31;;;17.34;53.89
13050;BME280;6591;51.446;5.404;2023-03-26T11:54:30;99881.16;;;17.25;54.02
13050;BME280;6591;51.446;5.404;2023-03-26T11:57:09;99877.97;;;17.10;53.74
13050;BME280;6591;51.446;5.404;2023-03-26T11:59:59;99882.47;;;17.00;53.83
13050;BME280;6591;51.446;5.404;2023-03-26T12:02:40;99887.09;;;16.98;54.03
13050;BME280;6591;51.446;5.404;2023-03-26T12:05:15;99888.59;;;16.91;53.90
13050;BME280;6591;51.446;5.404;2023-03-26T12:08:02;99891.13;;;16.83;54.22
13050;BME280;6591;51.446;5.404;2023-03-26T12:10:39;99896.75;;;16.80;54.17
13050;BME280;6591;51.446;5.404;2023-03-26T12:13:40;99898.94;;;16.75;54.21
13050;BME280;6591;51.446;5.404;2023-03-26T12:16:16;99893.34;;;16.78;54.53
13050;BME280;6591;51.446;5.404;2023-03-26T12:18:55;99900.25;;;16.80;54.82
13050;BME280;6591;51.446;5.404;2023-03-26T12:21:23;99897.44;;;16.82;54.41
13050;BME280;6591;51.446;5.404;2023-03-26T12:26:43;99905.78;;;16.79;54.62
13050;BME280;6591;51.446;5.404;2023-03-26T12:29:17;99905.38;;;16.83;54.54
13050;BME280;6591;51.446;5.404;2023-03-26T12:32:02;99900.88;;;16.84;54.47
13050;BME280;6591;51.446;5.404;2023-03-26T12:34:33;99910.22;;;16.89;54.85
13050;BME280;6591;51.446;5.404;2023-03-26T12:37:03;99916.56;;;16.88;54.26
13050;BME280;6591;51.446;5.404;2023-03-26T12:39:37;99919.03;;;16.80;53.97
13050;BME280;6591;51.446;5.404;2023-03-26T12:42:29;99908.84;;;16.74;54.03
13050;BME280;6591;51.446;5.404;2023-03-26T12:45:37;99913.59;;;16.71;54.44
13050;BME280;6591;51.446;5.404;2023-03-26T12:48:06;99916.44;;;16.69;54.24
13050;BME280;6591;51.446;5.404;2023-03-26T12:51:21;99915.50;;;16.59;54.04
13050;BME280;6591;51.446;5.404;2023-03-26T12:57:22;99916.06;;;16.42;54.45
13050;BME280;6591;51.446;5.404;2023-03-26T13:00:10;99918.03;;;16.40;54.37
13050;BME280;6591;51.446;5.404;2023-03-26T13:05:56;99925.13;;;16.30;54.51
13050;BME280;6591;51.446;5.404;2023-03-26T13:12:07;99928.31;;;16.24;54.47
13050;BME280;6591;51.446;5.404;2023-03-26T13:17:29;99937.59;;;16.20;54.31
13050;BME280;6591;51.446;5.404;2023-03-26T13:20:10;99930.06;;;16.14;54.00
13050;BME280;6591;51.446;5.404;2023-03-26T13:23:11;99939.84;;;16.03;54.29
13050;BME280;6591;51.446;5.404;2023-03-26T13:26:02;99943.75;;;15.99;54.23
13050;BME280;6591;51.446;5.404;2023-03-26T13:31:35;99941.09;;;15.88;54.31
13050;BME280;6591;51.446;5.404;2023-03-26T13:34:31;99949.13;;;15.88;54.70
13050;BME280;6591;51.446;5.404;2023-03-26T13:38:00;99953.53;;;15.89;55.04
13050;BME280;6591;51.446;5.404;2023-03-26T13:47:24;99950.25;;;16.18;55.94
13050;BME280;6591;51.446;5.404;2023-03-26T13:55:56;99951.06;;;16.61;55.52
13050;BME280;6591;51.446;5.404;2023-03-26T14:01:40;99966.94;;;16.53;53.85
13050;BME280;6591;51.446;5.404;2023-03-26T14:04:27;99965.00;;;16.44;53.86
13050;BME280;6591;51.446;5.404;2023-03-26T14:12:44;99980.00;;;16.03;53.58
13050;BME280;6591;51.446;5.404;2023-03-26T14:15:26;99989.19;;;15.90;53.70
13050;BME280;6591;51.446;5.404;2023-03-26T14:21:24;100000.28;;;15.63;54.09
13050;BME280;6591;51.446;5.404;2023-03-26T14:32:41;100020.91;;;15.39;55.24
13050;BME280;6591;51.446;5.404;2023-03-26T14:35:46;100022.38;;;15.32;55.14
13050;BME280;6591;51.446;5.404;2023-03-26T14:38:28;100023.44;;;15.29;55.00
13050;BME280;6591;51.446;5.404;2023-03-26T14:41:23;100032.19;;;15.20;55.17
13050;BME280;6591;51.446;5.404;2023-03-26T14:52:53;100056.66;;;14.92;56.15
13050;BME280;6591;51.446;5.404;2023-03-26T14:55:44;100063.59;;;14.94;56.28
13050;BME280;6591;51.446;5.404;2023-03-26T15:08:42;100081.66;;;14.79;56.31
13050;BME280;6591;51.446;5.404;2023-03-26T15:11:37;100085.28;;;14.78;56.38
13050;BME280;6591;51.446;5.404;2023-03-26T15:25:49;100108.34;;;15.03;56.29
13050;BME280;6591;51.446;5.404;2023-03-26T15:41:09;100138.97;;;14.99;55.41
13050;BME280;6591;51.446;5.404;2023-03-26T15:49:37;100160.59;;;14.96;54.65
13050;BME280;6591;51.446;5.404;2023-03-26T15:52:34;100156.41;;;14.92;54.66
13050;BME280;6591;51.446;5.404;2023-03-26T15:55:29;100171.75;;;14.90;54.69
13050;BME280;6591;51.446;5.404;2023-03-26T15:58:20;100175.38;;;14.89;54.74
13050;BME280;6591;51.446;5.404;2023-03-26T16:04:40;100178.59;;;14.81;54.79
13050;BME280;6591;51.446;5.404;2023-03-26T16:22:04;100208.72;;;14.96;54.84
13050;BME280;6591;51.446;5.404;2023-03-26T16:24:39;100207.41;;;15.02;54.63
13050;BME280;6591;51.446;5.404;2023-03-26T16:27:27;100215.94;;;15.07;54.63
13050;BME280;6591;51.446;5.404;2023-03-26T16:32:35;100224.00;;;15.18;54.45
13050;BME280;6591;51.446;5.404;2023-03-26T16:37:47;100236.53;;;15.17;52.97
13050;BME280;6591;51.446;5.404;2023-03-26T16:43:25;100244.50;;;15.06;51.60
13050;BME280;6591;51.446;5.404;2023-03-26T16:50:06;100266.69;;;14.96;51.00
13050;BME280;6591;51.446;5.404;2023-03-26T16:53:04;100278.53;;;14.92;50.45
13050;BME280;6591;51.446;5.404;2023-03-26T16:59:05;100296.84;;;14.85;49.81
13050;BME280;6591;51.446;5.404;2023-03-26T17:01:59;100302.53;;;14.80;49.75
13050;BME280;6591;51.446;5.404;2023-03-26T17:04:32;100323.78;;;14.82;49.28
13050;BME280;6591;51.446;5.404;2023-03-26T17:07:36;100318.88;;;14.76;49.72
13050;BME280;6591;51.446;5.404;2023-03-26T17:10:35;100333.22;;;14.75;49.68
13050;BME280;6591;51.446;5.404;2023-03-26T17:13:19;100340.38;;;14.74;49.35
13050;BME280;6591;51.446;5.404;2023-03-26T17:16:32;100347.22;;;14.66;49.09
13050;BME280;6591;51.446;5.404;2023-03-26T17:19:20;100353.53;;;14.65;49.01
13050;BME280;6591;51.446;5.404;2023-03-26T17:22:04;100362.50;;;14.64;49.00
13050;BME280;6591;51.446;5.404;2023-03-26T17:41:07;100405.56;;;14.47;48.50
13050;BME280;6591;51.446;5.404;2023-03-26T17:43:48;100419.03;;;14.45;48.04
13050;BME280;6591;51.446;5.404;2023-03-26T17:46:43;100421.81;;;14.44;48.19
13050;BME280;6591;51.446;5.404;2023-03-26T17:49:24;100426.63;;;14.38;48.39
13050;BME280;6591;51.446;5.404;2023-03-26T17:52:36;100434.06;;;14.33;47.88
13050;BME280;6591;51.446;5.404;2023-03-26T17:55:24;100441.88;;;14.36;47.74
13050;BME280;6591;51.446;5.404;2023-03-26T17:58:04;100450.81;;;14.35;47.67
13050;BME280;6591;51.446;5.404;2023-03-26T18:01:06;100462.75;;;14.30;47.69
13050;BME280;6591;51.446;5.404;2023-03-26T18:03:57;100469.91;;;14.29;47.42
13050;BME280;6591;51.446;5.404;2023-03-26T18:16:17;100495.19;;;14.11;47.24
13050;BME280;6591;51.446;5.404;2023-03-26T18:18:52;100501.47;;;14.10;46.50
13050;BME280;6591;51.446;5.404;2023-03-26T18:21:32;100500.81;;;14.07;46.21
13050;BME280;6591;51.446;5.404;2023-03-26T18:24:04;100510.66;;;14.06;46.04
13050;BME280;6591;51.446;5.404;2023-03-26T18:26:52;100524.38;;;14.00;45.44
13050;BME280;6591;51.446;5.404;2023-03-26T18:29:33;100532.59;;;13.97;45.67
13050;BME280;6591;51.446;5.404;2023-03-26T18:34:46;100545.56;;;13.89;45.05
13050;BME280;6591;51.446;5.404;2023-03-26T18:37:28;100562.53;;;13.88;45.18
13050;BME280;6591;51.446;5.404;2023-03-26T18:42:48;100561.00;;;13.84;45.48
13050;BME280;6591;51.446;5.404;2023-03-26T18:45:33;100568.25;;;13.82;45.53
13050;BME280;6591;51.446;5.404;2023-03-26T18:48:22;100572.06;;;13.78;45.44
13050;BME280;6591;51.446;5.404;2023-03-26T18:50:55;100583.69;;;13.77;45.42
13050;BME280;6591;51.446;5.404;2023-03-26T18:53:27;100582.94;;;13.75;45.27
13050;BME280;6591;51.446;5.404;2023-03-26T18:55:57;100587.50;;;13.73;44.64
13050;BME280;6591;51.446;5.404;2023-03-26T18:58:35;100601.16;;;13.68;44.20
13050;BME280;6591;51.446;5.404;2023-03-26T19:01:08;100596.19;;;13.62;44.30
13050;BME280;6591;51.446;5.404;2023-03-26T19:03:50;100601.63;;;13.61;43.20
13050;BME280;6591;51.446;5.404;2023-03-26T19:06:18;100617.03;;;13.55;43.09
13050;BME280;6591;51.446;5.404;2023-03-26T19:08:47;100613.63;;;13.53;43.19
13050;BME280;6591;51.446;5.404;2023-03-26T19:11:16;100614.78;;;13.49;42.41
13050;BME280;6591;51.446;5.404;2023-03-26T19:13:58;100625.81;;;13.43;42.73
13050;BME280;6591;51.446;5.404;2023-03-26T19:16:28;100634.75;;;13.42;42.47
13050;BME280;6591;51.446;5.404;2023-03-26T19:19:06;100641.22;;;13.38;42.39
13050;BME280;6591;51.446;5.404;2023-03-26T19:21:35;100642.25;;;13.36;42.55
13050;BME280;6591;51.446;5.404;2023-03-26T19:24:04;100646.94;;;13.32;42.71
13050;BME280;6591;51.446;5.404;2023-03-26T19:26:31;100653.22;;;13.31;42.63
13050;BME280;6591;51.446;5.404;2023-03-26T19:28:59;100661.41;;;13.28;42.20
13050;BME280;6591;51.446;5.404;2023-03-26T19:31:33;100659.97;;;13.23;42.13
13050;BME280;6591;51.446;5.404;2023-03-26T19:36:52;100681.72;;;13.15;42.23
13050;BME280;6591;51.446;5.404;2023-03-26T19:39:44;100683.63;;;13.13;42.19
13050;BME280;6591;51.446;5.404;2023-03-26T19:42:17;100696.00;;;13.14;42.54
13050;BME280;6591;51.446;5.404;2023-03-26T19:44:47;100705.81;;;13.13;42.19